Time;durP1;ratioP1;P1;durP2;ratioP2;P2;SDS_P1;SDS_P2;PMS_P1;PMS_P2;Temp;Humidity;BMP_temperature;BMP_pressure;BME280_temperature;BME280_humidity;BME280_pressure;Samples;Min_cycle;Max_cycle;Signal;HPM_P1;HPM_P2
2022/10/21 00:02:10;;;;;;;16.50;7.25;;;13.20;99.90;;;;;;5013358;28;20030;-74
2022/10/21 00:04:36;;;;;;;20.60;7.68;;;13.30;99.90;;;;;;5013893;28;20093;-74
2022/10/21 00:07:01;;;;;;;17.90;7.13;;;13.30;99.90;;;;;;5013423;28;20062;-75
2022/10/21 00:09:30;;;;;;;12.77;6.45;;;;;;;;;;5013867;28;20022;-74
2022/10/21 00:11:55;;;;;;;17.33;7.90;;;13.20;99.90;;;;;;5013205;28;20125;-75
2022/10/21 00:14:21;;;;;;;20.48;7.72;;;13.20;99.90;;;;;;5016396;28;20544;-74
2022/10/21 00:16:46;;;;;;;13.98;7.10;;;13.30;99.90;;;;;;5017218;28;20026;-74
2022/10/21 00:19:12;;;;;;;21.20;7.80;;;13.20;99.90;;;;;;5017270;28;20030;-74
2022/10/21 00:21:39;;;;;;;17.20;6.57;;;13.30;99.90;;;;;;5017161;28;20101;-74
2022/10/21 00:24:05;;;;;;;16.05;6.75;;;13.30;99.90;;;;;;4999406;28;20484;-75
2022/10/21 00:26:31;;;;;;;14.40;6.85;;;13.30;99.90;;;;;;5017226;28;20029;-75
2022/10/21 00:28:57;;;;;;;15.52;7.70;;;13.30;99.90;;;;;;4999479;28;20029;-74
2022/10/21 00:31:23;;;;;;;16.73;7.80;;;13.40;99.90;;;;;;5017030;28;20030;-74
2022/10/21 00:33:49;;;;;;;16.42;7.55;;;13.40;99.90;;;;;;5016873;28;20026;-74
2022/10/21 00:36:15;;;;;;;15.77;7.95;;;13.40;99.90;;;;;;5016897;28;20026;-74
2022/10/21 00:38:42;;;;;;;16.67;6.90;;;13.40;99.90;;;;;;4999225;28;20014;-74
2022/10/21 00:41:08;;;;;;;11.85;6.88;;;13.40;99.90;;;;;;4999330;28;20026;-74
2022/10/21 00:43:56;;;;;;;17.38;7.72;;;13.40;99.90;;;;;;5017315;28;20025;-75
2022/10/21 00:46:49;;;;;;;15.77;7.40;;;13.40;99.90;;;;;;5017309;28;20044;-74
2022/10/21 00:49:33;;;;;;;23.50;8.13;;;13.40;99.90;;;;;;5016703;28;20421;-74
2022/10/21 00:52:02;;;;;;;16.30;7.30;;;13.40;99.90;;;;;;5016641;28;20030;-74
2022/10/21 00:54:29;;;;;;;15.38;7.50;;;13.50;99.90;;;;;;5016478;28;20025;-74
2022/10/21 00:56:56;;;;;;;16.20;8.32;;;13.50;99.90;;;;;;5016528;28;20072;-74
2022/10/21 00:59:24;;;;;;;19.58;8.85;;;13.60;99.90;;;;;;5016488;28;20022;-74
2022/10/21 01:01:50;;;;;;;16.52;7.32;;;13.60;99.90;;;;;;4999174;28;20022;-74
2022/10/21 01:04:16;;;;;;;14.18;6.72;;;13.60;99.90;;;;;;5016344;28;20025;-74
2022/10/21 01:06:42;;;;;;;20.75;8.07;;;13.70;99.90;;;;;;4998719;28;20489;-74
2022/10/21 01:09:08;;;;;;;17.02;7.85;;;13.70;99.90;;;;;;4998838;28;20030;-74
2022/10/21 01:11:40;;;;;;;15.38;7.65;;;13.70;99.90;;;;;;4998657;28;20384;-74
2022/10/21 01:14:21;;;;;;;13.90;7.20;;;13.70;99.90;;;;;;4998617;28;20061;-74
2022/10/21 01:16:52;;;;;;;16.55;6.20;;;13.70;99.90;;;;;;5016502;28;20076;-74
2022/10/21 01:20:00;;;;;;;13.25;6.63;;;13.70;99.90;;;;;;4998687;28;20030;-75
2022/10/21 01:23:06;;;;;;;14.05;6.43;;;13.70;99.90;;;;;;4998545;28;20017;-74
2022/10/21 01:26:10;;;;;;;11.95;6.05;;;13.70;99.90;;;;;;5015602;28;20029;-75
2022/10/21 01:28:54;;;;;;;19.52;7.15;;;13.70;99.90;;;;;;4936448;29;20039;-74
2022/10/21 01:31:28;;;;;;;14.90;6.85;;;13.80;99.90;;;;;;5010638;28;20099;-74
2022/10/21 01:34:08;;;;;;;16.05;5.47;;;13.70;99.90;;;;;;5015824;28;20025;-74
2022/10/21 01:36:41;;;;;;;13.48;6.10;;;13.80;99.90;;;;;;5015845;28;20366;-74
2022/10/21 01:39:29;;;;;;;19.58;6.13;;;13.80;99.90;;;;;;4998284;28;20033;-74
2022/10/21 01:42:02;;;;;;;12.27;5.80;;;13.80;99.90;;;;;;4998084;28;20110;-74
2022/10/21 01:44:52;;;;;;;14.02;6.22;;;13.70;99.90;;;;;;5015599;28;20052;-74
2022/10/21 01:47:35;;;;;;;12.77;5.80;;;13.80;99.90;;;;;;4998069;28;20021;-74
2022/10/21 01:50:05;;;;;;;13.52;5.88;;;13.80;99.90;;;;;;5015585;28;20109;-74
2022/10/21 01:52:30;;;;;;;10.75;6.15;;;13.80;99.90;;;;;;5015505;28;20105;-74
2022/10/21 01:55:05;;;;;;;14.52;6.70;;;13.90;99.90;;;;;;5015489;28;20171;-74
2022/10/21 01:57:40;;;;;;;13.50;6.00;;;13.80;99.90;;;;;;4997933;28;20028;-74
2022/10/21 02:00:06;;;;;;;13.35;5.72;;;13.80;99.90;;;;;;4997819;28;20393;-74
2022/10/21 02:02:36;;;;;;;18.48;6.78;;;13.70;99.90;;;;;;5015261;28;20025;-74
2022/10/21 02:05:09;;;;;;;14.35;6.53;;;13.70;99.90;;;;;;5015356;28;20454;-74
2022/10/21 02:07:35;;;;;;;16.27;6.65;;;13.60;99.90;;;;;;5015258;28;20101;-74
2022/10/21 02:10:00;;;;;;;15.60;7.80;;;13.60;99.90;;;;;;5015174;28;20571;-74
2022/10/21 02:12:28;;;;;;;15.60;6.80;;;13.60;99.90;;;;;;5015058;28;20052;-74
2022/10/21 02:14:55;;;;;;;12.27;6.50;;;13.50;99.90;;;;;;5015641;28;20030;-74
2022/10/21 02:17:21;;;;;;;16.73;7.18;;;13.60;99.90;;;;;;4997484;28;20021;-74
2022/10/21 02:19:47;;;;;;;17.40;8.07;;;13.60;99.90;;;;;;4997521;28;20045;-74
2022/10/21 02:22:17;;;;;;;12.07;6.72;;;13.60;99.90;;;;;;5014940;28;20473;-74
2022/10/21 02:24:54;;;;;;;20.42;8.07;;;13.60;99.90;;;;;;5015483;28;20024;-74
2022/10/21 02:27:21;;;;;;;15.00;7.22;;;13.60;99.90;;;;;;4997332;28;20021;-74
2022/10/21 02:29:50;;;;;;;14.57;7.63;;;13.50;99.90;;;;;;4997235;28;20025;-74
2022/10/21 02:32:21;;;;;;;16.48;7.20;;;13.50;99.90;;;;;;5014713;28;20026;-74
2022/10/21 02:35:13;;;;;;;12.88;7.13;;;13.50;99.90;;;;;;5014620;28;20087;-74
2022/10/21 02:37:49;;;;;;;18.58;7.93;;;13.40;99.90;;;;;;5014311;28;20018;-74
2022/10/21 02:40:35;;;;;;;23.60;8.32;;;13.40;99.90;;;;;;5014656;28;20026;-74
2022/10/21 02:43:25;;;;;;;15.60;7.18;;;13.40;99.90;;;;;;4996963;28;20481;-74
2022/10/21 02:45:58;;;;;;;18.92;7.60;;;13.30;99.90;;;;;;5002489;28;20042;-74
2022/10/21 02:48:23;;;;;;;13.30;7.78;;;13.30;99.90;;;;;;5014602;28;20030;-74
2022/10/21 02:50:49;;;;;;;15.65;7.32;;;13.20;99.90;;;;;;5014356;28;20029;-74
2022/10/21 02:53:15;;;;;;;17.70;7.72;;;13.20;99.90;;;;;;4996653;28;20026;-74
2022/10/21 02:55:40;;;;;;;19.17;7.97;;;13.20;99.90;;;;;;4996683;28;20087;-74
2022/10/21 02:58:06;;;;;;;19.33;7.28;;;13.10;99.90;;;;;;5014197;28;20033;-74
2022/10/21 03:00:31;;;;;;;14.32;6.93;;;13.10;99.90;;;;;;4996614;28;20022;-74
2022/10/21 03:02:57;;;;;;;20.60;7.72;;;13.10;99.90;;;;;;5014081;28;20028;-74
2022/10/21 03:05:22;;;;;;;13.40;7.35;;;13.10;99.90;;;;;;5014148;28;20240;-75
2022/10/21 03:07:49;;;;;;;14.15;8.02;;;13.00;99.90;;;;;;4996562;28;20122;-74
2022/10/21 03:10:14;;;;;;;32.95;8.35;;;13.30;99.90;;;;;;4996421;28;20037;-74
2022/10/21 03:12:50;;;;;;;17.48;7.43;;;13.00;99.90;;;;;;5013997;28;20030;-75
2022/10/21 03:15:19;;;;;;;15.68;7.97;;;13.10;99.90;;;;;;4996354;28;20037;-74
2022/10/21 03:17:45;;;;;;;13.75;7.05;;;12.90;99.90;;;;;;5013953;28;20514;-74
2022/10/21 03:20:11;;;;;;;17.20;7.47;;;13.00;99.90;;;;;;4996393;28;20092;-74
2022/10/21 03:22:37;;;;;;;15.30;7.57;;;12.90;99.90;;;;;;5013896;28;20022;-74
2022/10/21 03:25:03;;;;;;;17.67;7.78;;;12.80;99.90;;;;;;5013900;28;20030;-74
2022/10/21 03:27:29;;;;;;;15.73;6.82;;;12.80;99.90;;;;;;5013764;28;20029;-74
2022/10/21 03:29:54;;;;;;;17.33;7.32;;;12.90;99.90;;;;;;5014089;28;20542;-74
2022/10/21 03:32:20;;;;;;;20.85;8.48;;;;;;;;;;4996500;28;20041;-75
2022/10/21 03:34:46;;;;;;;18.02;7.65;;;12.80;99.90;;;;;;5014167;28;20034;-74
2022/10/21 03:37:12;;;;;;;16.33;6.93;;;12.80;99.90;;;;;;4995977;28;20156;-74
2022/10/21 03:39:37;;;;;;;12.82;6.80;;;12.80;99.90;;;;;;5013624;28;20033;-74
2022/10/21 03:42:03;;;;;;;13.00;6.68;;;12.70;99.90;;;;;;5013598;28;20029;-74
2022/10/21 03:44:28;;;;;;;15.15;7.18;;;13.00;99.90;;;;;;5013470;28;20037;-74
2022/10/21 03:46:54;;;;;;;11.48;6.57;;;12.80;99.90;;;;;;5013415;28;20022;-74
2022/10/21 03:49:19;;;;;;;14.75;7.15;;;12.70;99.90;;;;;;5014009;28;20485;-74
2022/10/21 03:51:45;;;;;;;15.70;7.03;;;12.70;99.90;;;;;;4995887;28;20105;-74
2022/10/21 03:54:11;;;;;;;19.88;6.85;;;12.70;99.90;;;;;;4995755;28;20117;-74
2022/10/21 03:56:36;;;;;;;16.08;6.50;;;12.60;99.90;;;;;;5013389;28;20412;-74
2022/10/21 03:59:02;;;;;;;15.45;7.28;;;12.60;99.90;;;;;;4995857;28;20413;-74
2022/10/21 04:01:27;;;;;;;18.05;7.82;;;12.60;99.90;;;;;;4995859;28;20393;-74
2022/10/21 04:03:53;;;;;;;14.40;6.60;;;12.50;99.90;;;;;;4995836;28;20026;-74
2022/10/21 04:06:19;;;;;;;11.38;6.20;;;12.40;99.90;;;;;;4995701;28;20053;-74
2022/10/21 04:08:44;;;;;;;15.63;7.20;;;12.40;99.90;;;;;;5013277;28;20481;-74
2022/10/21 04:11:10;;;;;;;11.35;6.05;;;12.40;99.90;;;;;;5013257;28;20037;-74
2022/10/21 04:13:35;;;;;;;16.02;7.40;;;12.70;99.90;;;;;;5013361;28;20057;-74
2022/10/21 04:16:03;;;;;;;17.42;6.35;;;12.30;99.90;;;;;;4995543;28;20057;-74
2022/10/21 04:18:29;;;;;;;13.63;6.85;;;12.30;99.90;;;;;;5013197;28;20052;-74
2022/10/21 04:20:55;;;;;;;15.68;7.57;;;12.30;99.90;;;;;;5013340;28;20105;-74
2022/10/21 04:23:20;;;;;;;15.65;7.90;;;12.30;99.90;;;;;;5013255;28;20025;-74
2022/10/21 04:25:46;;;;;;;9.82;6.00;;;12.30;99.90;;;;;;4995605;28;20061;-74
2022/10/21 04:28:11;;;;;;;14.73;6.18;;;12.30;99.90;;;;;;5013302;28;20053;-74
2022/10/21 04:30:37;;;;;;;16.02;7.00;;;12.30;99.90;;;;;;5013175;28;20097;-74
2022/10/21 04:33:03;;;;;;;21.02;6.95;;;12.30;99.90;;;;;;5013051;28;20029;-74
2022/10/21 04:35:28;;;;;;;16.63;7.38;;;12.30;99.90;;;;;;5013031;28;20551;-74
2022/10/21 04:37:54;;;;;;;15.20;6.55;;;12.20;99.90;;;;;;5013118;28;20026;-74
2022/10/21 04:40:19;;;;;;;14.75;6.82;;;12.30;99.90;;;;;;5012992;28;20022;-74
2022/10/21 04:42:51;;;;;;;25.10;6.70;;;12.20;99.90;;;;;;5012975;28;20029;-74
2022/10/21 04:45:17;;;;;;;15.73;5.93;;;12.30;99.90;;;;;;5012942;28;20125;-74
2022/10/21 04:47:43;;;;;;;13.02;6.13;;;12.20;99.90;;;;;;4995444;28;20033;-74
2022/10/21 04:50:09;;;;;;;14.43;7.40;;;12.30;99.90;;;;;;4995408;28;20397;-74
2022/10/21 04:52:36;;;;;;;18.02;6.47;;;12.30;99.90;;;;;;4995275;28;20022;-74
2022/10/21 04:55:01;;;;;;;16.60;6.97;;;12.20;99.90;;;;;;5012793;28;20030;-74
2022/10/21 04:57:27;;;;;;;15.13;6.50;;;12.20;99.90;;;;;;5013095;28;20025;-74
2022/10/21 04:59:53;;;;;;;18.00;7.05;;;12.20;99.90;;;;;;5014882;28;20072;-74
2022/10/21 05:02:18;;;;;;;14.07;7.03;;;12.30;99.90;;;;;;5016239;28;20029;-74
2022/10/21 05:04:44;;;;;;;11.98;6.35;;;12.20;99.90;;;;;;5016475;28;20022;-74
2022/10/21 05:07:09;;;;;;;17.35;6.68;;;12.20;99.90;;;;;;5016421;28;20022;-74
2022/10/21 05:09:35;;;;;;;11.80;5.70;;;12.10;99.90;;;;;;5016376;28;20033;-74
2022/10/21 05:12:01;;;;;;;18.02;6.95;;;12.10;99.90;;;;;;5016392;28;20092;-74
2022/10/21 05:14:26;;;;;;;12.32;6.68;;;12.90;99.90;;;;;;4998629;28;20473;-74
2022/10/21 05:16:52;;;;;;;13.77;6.03;;;12.10;99.90;;;;;;4998603;28;20040;-74
2022/10/21 05:19:17;;;;;;;13.13;6.47;;;12.10;99.90;;;;;;4998570;28;20104;-74
2022/10/21 05:21:45;;;;;;;14.93;6.35;;;12.70;99.90;;;;;;5016376;28;20540;-74
2022/10/21 05:24:10;;;;;;;12.63;6.03;;;12.10;99.90;;;;;;5016095;28;20050;-74
2022/10/21 05:26:36;;;;;;;15.27;5.68;;;12.10;99.90;;;;;;5016076;28;20066;-74
2022/10/21 05:29:02;;;;;;;14.85;6.57;;;12.10;99.90;;;;;;5016102;28;20026;-74
2022/10/21 05:31:27;;;;;;;18.17;6.10;;;12.00;99.90;;;;;;5015744;28;20034;-74
2022/10/21 05:33:53;;;;;;;14.30;5.88;;;12.00;99.90;;;;;;5015828;28;20508;-74
2022/10/21 05:36:21;;;;;;;13.25;6.85;;;12.00;99.90;;;;;;4998015;28;20026;-74
2022/10/21 05:38:47;;;;;;;15.87;6.33;;;12.00;99.90;;;;;;5016166;28;20469;-75
2022/10/21 05:41:12;;;;;;;16.38;5.35;;;11.90;99.90;;;;;;5016222;28;20052;-75
2022/10/21 05:43:38;;;;;;;12.95;5.53;;;11.90;99.90;;;;;;5015683;28;20101;-74
2022/10/21 05:46:04;;;;;;;10.90;5.03;;;12.00;99.90;;;;;;5015434;28;20124;-75
2022/10/21 05:48:30;;;;;;;16.65;6.03;;;11.90;99.90;;;;;;4997849;28;20022;-75
2022/10/21 05:50:55;;;;;;;13.30;6.05;;;11.90;99.90;;;;;;5015385;28;20441;-75
2022/10/21 05:53:23;;;;;;;13.20;6.03;;;11.90;99.90;;;;;;5015338;28;20030;-74
2022/10/21 05:56:03;;;;;;;13.98;5.13;;;11.90;99.90;;;;;;5015191;28;20026;-74
2022/10/21 05:58:29;;;;;;;15.30;4.95;;;11.90;99.90;;;;;;5015286;28;20030;-74
2022/10/21 06:00:55;;;;;;;13.30;5.43;;;11.90;99.90;;;;;;5015208;28;20428;-74
2022/10/21 06:03:29;;;;;;;11.85;5.60;;;11.80;99.90;;;;;;5015176;28;20029;-74
2022/10/21 06:05:57;;;;;;;11.75;5.90;;;11.80;99.90;;;;;;4997560;28;20018;-74
2022/10/21 06:08:23;;;;;;;15.95;4.82;;;11.80;99.90;;;;;;5015119;28;20056;-75
2022/10/21 06:10:48;;;;;;;11.07;5.47;;;11.80;99.90;;;;;;5014037;28;20473;-74
2022/10/21 06:13:14;;;;;;;13.93;5.20;;;11.80;99.90;;;;;;5015031;28;20385;-75
2022/10/21 06:15:40;;;;;;;14.75;6.00;;;11.80;99.90;;;;;;5015360;28;20492;-74
2022/10/21 06:18:05;;;;;;;13.73;6.25;;;11.80;99.90;;;;;;5014903;28;20018;-75
2022/10/21 06:20:31;;;;;;;14.80;6.05;;;11.70;99.90;;;;;;5015383;28;20034;-75
2022/10/21 06:22:59;;;;;;;12.27;5.13;;;11.70;99.90;;;;;;5014999;28;20102;-74
2022/10/21 06:25:25;;;;;;;10.50;5.22;;;11.70;99.90;;;;;;5014436;28;20018;-74
2022/10/21 06:27:52;;;;;;;12.32;5.70;;;11.70;99.90;;;;;;5014880;28;20388;-74
2022/10/21 06:30:17;;;;;;;13.70;5.07;;;11.70;99.90;;;;;;5014662;28;20370;-75
2022/10/21 06:32:43;;;;;;;9.60;4.47;;;11.70;99.90;;;;;;5014578;28;20045;-75
2022/10/21 06:35:09;;;;;;;11.93;4.88;;;11.70;99.90;;;;;;4996944;28;20079;-74
2022/10/21 06:37:35;;;;;;;10.20;5.35;;;11.70;99.90;;;;;;5014529;28;20022;-75
2022/10/21 06:40:03;;;;;;;12.32;5.50;;;11.70;99.90;;;;;;5014439;28;20091;-74
2022/10/21 06:42:29;;;;;;;14.13;4.93;;;11.80;99.90;;;;;;5014392;28;20049;-74
2022/10/21 06:44:57;;;;;;;10.80;5.60;;;11.80;99.90;;;;;;5014597;28;20061;-74
2022/10/21 06:47:23;;;;;;;14.50;5.07;;;11.80;99.90;;;;;;5014572;28;20056;-75
2022/10/21 06:49:48;;;;;;;12.73;4.75;;;11.80;99.90;;;;;;4996650;28;20041;-74
2022/10/21 06:52:14;;;;;;;19.23;5.82;;;11.80;99.90;;;;;;5014222;28;20108;-74
2022/10/21 06:54:40;;;;;;;10.18;5.53;;;11.80;99.90;;;;;;5014244;28;20022;-75
2022/10/21 06:57:05;;;;;;;13.00;5.13;;;11.90;99.90;;;;;;5014208;28;20057;-74
2022/10/21 06:59:31;;;;;;;10.40;4.72;;;11.90;99.90;;;;;;5014215;28;20121;-75
2022/10/21 07:01:57;;;;;;;9.95;5.18;;;11.90;99.90;;;;;;5014378;28;20080;-75
2022/10/21 07:04:22;;;;;;;14.15;4.65;;;11.90;99.90;;;;;;4996511;28;20050;-74
2022/10/21 07:06:48;;;;;;;15.13;4.55;;;11.90;99.90;;;;;;5014059;28;20508;-74
2022/10/21 07:09:14;;;;;;;13.02;4.65;;;12.00;99.90;;;;;;4996423;28;20040;-74
2022/10/21 07:11:39;;;;;;;16.38;5.03;;;12.00;99.90;;;;;;4996563;28;20080;-75
2022/10/21 07:14:06;;;;;;;12.57;5.65;;;12.00;99.90;;;;;;5014040;28;20543;-75
2022/10/21 07:16:34;;;;;;;17.05;5.65;;;12.10;99.90;;;;;;5014019;28;20029;-75
2022/10/21 07:19:00;;;;;;;10.10;4.45;;;12.30;99.90;;;;;;5014001;28;20101;-75
2022/10/21 07:21:27;;;;;;;14.02;5.32;;;12.10;99.90;;;;;;4996051;28;20057;-75
2022/10/21 07:23:54;;;;;;;8.20;4.30;;;12.10;99.90;;;;;;5013883;28;20048;-75
2022/10/21 07:26:22;;;;;;;12.60;5.55;;;12.20;99.90;;;;;;5013902;28;20385;-75
2022/10/21 07:28:48;;;;;;;12.60;5.55;;;12.20;99.90;;;;;;4996236;28;20018;-75
2022/10/21 07:31:19;;;;;;;10.95;4.65;;;12.30;99.90;;;;;;4996128;28;20084;-74
2022/10/21 07:33:45;;;;;;;8.65;4.72;;;12.30;99.90;;;;;;5013627;28;20076;-75
2022/10/21 07:36:15;;;;;;;9.35;4.28;;;12.30;99.90;;;;;;5013677;28;20420;-74
2022/10/21 07:38:45;;;;;;;13.43;4.40;;;12.40;99.90;;;;;;5013670;28;20029;-75
2022/10/21 07:41:20;;;;;;;10.25;4.90;;;12.40;99.90;;;;;;5014275;28;20390;-75
2022/10/21 07:43:46;;;;;;;13.85;5.57;;;12.50;99.90;;;;;;5013905;28;20030;-74
2022/10/21 07:46:12;;;;;;;10.48;4.82;;;12.50;99.90;;;;;;5004839;23;20036;-73
2022/10/21 07:48:37;;;;;;;11.45;4.88;;;12.60;99.90;;;;;;5013604;28;20088;-73
2022/10/21 07:51:09;;;;;;;10.93;4.68;;;12.60;99.90;;;;;;4995991;28;20026;-73
2022/10/21 07:53:35;;;;;;;13.85;4.97;;;12.70;99.90;;;;;;4995889;28;20440;-73
2022/10/21 07:56:03;;;;;;;11.73;5.50;;;12.70;99.90;;;;;;5013417;28;20087;-73
2022/10/21 07:58:29;;;;;;;13.02;5.38;;;12.80;99.90;;;;;;5014018;28;20026;-73
2022/10/21 08:01:03;;;;;;;10.32;4.30;;;12.90;99.90;;;;;;4995812;28;20026;-73
2022/10/21 08:03:29;;;;;;;9.88;4.32;;;12.90;99.90;;;;;;5013955;28;20381;-73
2022/10/21 08:05:55;;;;;;;10.23;4.65;;;12.90;99.90;;;;;;5013448;28;20030;-73
2022/10/21 08:08:21;;;;;;;8.35;4.05;;;12.90;99.90;;;;;;5013767;28;20033;-73
2022/10/21 08:10:49;;;;;;;9.82;4.35;;;13.00;99.90;;;;;;4995786;28;20029;-73
2022/10/21 08:13:16;;;;;;;10.65;5.00;;;13.00;99.90;;;;;;5013584;28;20033;-73
2022/10/21 08:15:49;;;;;;;10.13;4.38;;;13.30;99.90;;;;;;5013221;28;20108;-73
2022/10/21 08:18:15;;;;;;;30.92;4.57;;;13.10;99.90;;;;;;4995809;28;20026;-73
2022/10/21 08:20:42;;;;;;;11.25;4.15;;;13.10;99.90;;;;;;5013283;28;20101;-73
2022/10/21 08:23:12;;;;;;;16.15;5.38;;;13.10;99.90;;;;;;5013203;28;20492;-73
2022/10/21 08:25:38;;;;;;;10.50;4.45;;;13.10;99.90;;;;;;5013313;28;20033;-73
2022/10/21 08:28:05;;;;;;;10.20;3.90;;;13.10;99.90;;;;;;5013270;28;20026;-73
2022/10/21 08:30:31;;;;;;;10.75;4.70;;;13.10;99.90;;;;;;5013419;28;20022;-73
2022/10/21 08:32:58;;;;;;;13.68;4.90;;;13.20;99.90;;;;;;5013235;28;20022;-73
2022/10/21 08:35:24;;;;;;;10.05;4.40;;;13.20;99.90;;;;;;5016125;28;20101;-73
2022/10/21 08:37:50;;;;;;;9.30;4.22;;;13.20;99.90;;;;;;4999448;28;20045;-73
2022/10/21 08:40:16;;;;;;;13.65;4.65;;;13.20;99.90;;;;;;5017092;28;20045;-73
2022/10/21 08:42:44;;;;;;;12.27;4.20;;;13.30;99.90;;;;;;5017366;28;20021;-73
2022/10/21 08:45:24;;;;;;;7.18;3.97;;;13.30;99.90;;;;;;5016723;28;20401;-73
2022/10/21 08:47:54;;;;;;;14.38;5.03;;;13.30;99.90;;;;;;5016864;28;20022;-73
2022/10/21 08:50:22;;;;;;;10.85;4.85;;;13.30;99.90;;;;;;5016825;28;20032;-73
2022/10/21 08:52:53;;;;;;;14.88;4.80;;;13.40;99.90;;;;;;5017027;28;20541;-73
2022/10/21 08:55:22;;;;;;;9.02;4.18;;;13.40;99.90;;;;;;5016641;28;20392;-73
2022/10/21 08:57:50;;;;;;;8.40;3.60;;;13.50;99.90;;;;;;5016649;28;20385;-73
2022/10/21 09:00:21;;;;;;;11.02;4.40;;;13.50;99.90;;;;;;5016871;28;20486;-73
2022/10/21 09:03:17;;;;;;;10.57;4.32;;;13.50;99.90;;;;;;5016862;28;20022;-73
2022/10/21 09:06:10;;;;;;;11.23;4.10;;;13.60;99.90;;;;;;5017028;28;20021;-73
2022/10/21 09:08:45;;;;;;;6.55;3.83;;;13.70;99.90;;;;;;4998885;28;20116;-73
2022/10/21 09:11:14;;;;;;;10.00;3.55;;;13.80;99.90;;;;;;5016418;28;20053;-73
2022/10/21 09:13:43;;;;;;;15.35;5.18;;;13.90;99.90;;;;;;4998708;28;20508;-73
2022/10/21 09:16:37;;;;;;;10.65;4.57;;;14.00;99.90;;;;;;4998714;28;20121;-73
2022/10/21 09:19:17;;;;;;;8.52;3.70;;;14.10;99.90;;;;;;5016273;28;20014;-73
2022/10/21 09:21:52;;;;;;;10.05;4.00;;;14.10;99.90;;;;;;5016341;28;20022;-73
2022/10/21 09:24:23;;;;;;;8.85;3.70;;;14.20;99.90;;;;;;5016082;28;20022;-73
2022/10/21 09:26:51;;;;;;;7.50;3.85;;;14.20;99.90;;;;;;4998462;28;20029;-73
2022/10/21 09:29:42;;;;;;;15.10;4.10;;;14.30;99.90;;;;;;4998519;28;20416;-73
2022/10/21 09:32:17;;;;;;;5.65;3.00;;;14.30;99.90;;;;;;5006618;28;20057;-73
2022/10/21 09:34:55;;;;;;;9.77;3.60;;;14.40;99.90;;;;;;4998225;28;20026;-73
2022/10/21 09:37:31;;;;;;;9.05;3.17;;;14.40;99.90;;;;;;5016127;28;20030;-73
2022/10/21 09:40:19;;;;;;;6.28;3.58;;;14.40;99.90;;;;;;4998335;28;20385;-73
2022/10/21 09:42:47;;;;;;;14.15;3.67;;;14.50;99.90;;;;;;5016020;28;20018;-73
2022/10/21 09:45:37;;;;;;;6.63;3.15;;;14.50;99.90;;;;;;5015444;28;20033;-73
2022/10/21 09:48:14;;;;;;;11.57;3.30;;;14.60;99.90;;;;;;5016416;28;20025;-73
2022/10/21 09:50:40;;;;;;;7.43;3.13;;;14.60;99.90;;;;;;5016200;28;20465;-73
2022/10/21 09:53:15;;;;;;;5.32;2.50;;;14.70;99.90;;;;;;5016064;28;20026;-73
2022/10/21 09:55:43;;;;;;;8.82;3.05;;;14.70;99.90;;;;;;5015563;28;20026;-73
2022/10/21 09:58:26;;;;;;;10.38;3.08;;;14.80;99.90;;;;;;5015576;28;20022;-73
2022/10/21 10:00:52;;;;;;;9.25;3.25;;;14.90;99.90;;;;;;4997898;28;20026;-73
2022/10/21 10:03:44;;;;;;;8.90;3.38;;;14.90;99.90;;;;;;5015328;28;20026;-73
2022/10/21 10:06:10;;;;;;;9.80;3.22;;;15.00;99.90;;;;;;5015944;28;20026;-73
2022/10/21 10:08:43;;;;;;;6.35;2.47;;;15.10;99.90;;;;;;4997759;28;20025;-73
2022/10/21 10:11:08;;;;;;;7.90;2.88;;;15.10;99.90;;;;;;4997652;28;20025;-73
2022/10/21 10:13:35;;;;;;;10.02;2.53;;;15.20;99.90;;;;;;4997517;28;20477;-73
2022/10/21 10:16:21;;;;;;;13.60;2.30;;;15.30;99.90;;;;;;5015792;28;20026;-73
2022/10/21 10:18:47;;;;;;;7.75;2.15;;;15.30;99.90;;;;;;4997548;28;20022;-73
2022/10/21 10:21:15;;;;;;;9.15;2.53;;;15.40;99.90;;;;;;5015140;28;20067;-73
2022/10/21 10:23:55;;;;;;;5.30;2.58;;;15.50;99.90;;;;;;5015141;28;20523;-73
2022/10/21 10:26:26;;;;;;;10.45;1.67;;;15.60;99.90;;;;;;4997438;28;20029;-73
2022/10/21 10:28:55;;;;;;;7.38;1.63;;;15.60;99.90;;;;;;5014888;28;20022;-73
2022/10/21 10:31:33;;;;;;;5.47;1.95;;;15.70;99.90;;;;;;5014846;28;20072;-73
2022/10/21 10:34:06;;;;;;;4.78;2.53;;;15.80;99.90;;;;;;5014762;28;20092;-73
2022/10/21 10:36:39;;;;;;;7.07;1.70;;;16.00;99.90;;;;;;4997119;28;20026;-73
2022/10/21 10:39:19;;;;;;;24.40;2.97;;;16.10;99.90;;;;;;4997053;28;20032;-73
2022/10/21 10:41:47;;;;;;;5.28;2.03;;;16.10;99.90;;;;;;5015309;28;20044;-73
2022/10/21 10:44:38;;;;;;;4.78;2.15;;;16.10;99.90;;;;;;4996776;28;20034;-73
2022/10/21 10:47:06;;;;;;;4.43;2.50;;;16.20;99.90;;;;;;5005303;28;20042;-74
2022/10/21 10:49:42;;;;;;;4.63;1.55;;;16.30;99.90;;;;;;5015043;28;20025;-73
2022/10/21 10:52:11;;;;;;;3.70;1.63;;;16.30;99.90;;;;;;5014440;28;20025;-73
2022/10/21 10:54:41;;;;;;;5.68;1.92;;;16.30;99.90;;;;;;5014506;28;20477;-73
2022/10/21 10:57:25;;;;;;;4.93;1.80;;;16.30;99.90;;;;;;5013649;28;20105;-73
2022/10/21 10:59:54;;;;;;;9.70;2.00;;;16.30;99.90;;;;;;5014428;28;20026;-73
2022/10/21 11:02:49;;;;;;;3.88;1.20;;;16.40;99.90;;;;;;5014227;28;20539;-73
2022/10/21 11:05:30;;;;;;;5.68;1.55;;;16.40;99.90;;;;;;5014196;28;20029;-73
2022/10/21 11:08:14;;;;;;;4.60;1.15;;;16.50;99.90;;;;;;5014262;28;20021;-73
2022/10/21 11:10:42;;;;;;;6.22;1.70;;;16.60;99.90;;;;;;5014740;28;20026;-73
2022/10/21 11:13:14;;;;;;;3.30;1.20;;;16.70;99.90;;;;;;4996310;28;20033;-73
2022/10/21 11:16:17;;;;;;;4.18;1.10;;;16.90;99.90;;;;;;5013942;28;20065;-73
2022/10/21 11:19:12;;;;;;;7.70;1.20;;;17.10;99.90;;;;;;5014064;28;20392;-73
2022/10/21 11:21:53;;;;;;;5.93;0.98;;;17.50;99.90;;;;;;5013984;28;20024;-73
2022/10/21 11:24:21;;;;;;;4.78;1.13;;;17.90;99.90;;;;;;5013910;28;20116;-73
2022/10/21 11:27:04;;;;;;;5.70;0.82;;;18.20;99.90;;;;;;5013982;28;20432;-75
2022/10/21 11:29:30;;;;;;;3.40;0.85;;;18.50;99.90;;;;;;4996339;28;20029;-75
2022/10/21 11:32:22;;;;;;;1.08;0.17;;;18.80;99.90;;;;;;4996243;28;20017;-75
2022/10/21 11:35:21;;;;;;;6.40;0.47;;;19.10;99.90;;;;;;4996231;28;20030;-75
2022/10/21 11:38:02;;;;;;;1.55;0.13;;;19.30;99.90;;;;;;4996098;28;20029;-75
2022/10/21 11:40:44;;;;;;;6.03;0.10;;;19.30;99.90;;;;;;5014341;28;20022;-74
2022/10/21 11:43:22;;;;;;;2.47;0.63;;;19.30;99.90;;;;;;5014200;28;20068;-75
2022/10/21 11:46:05;;;;;;;1.77;0.10;;;19.30;99.90;;;;;;4995988;28;20038;-75
2022/10/21 11:48:42;;;;;;;0.80;0.10;;;19.40;99.90;;;;;;5013712;28;20029;-75
2022/10/21 11:51:29;;;;;;;0.80;0.32;;;19.50;99.90;;;;;;5013556;28;20026;-74
2022/10/21 11:54:35;;;;;;;4.03;0.10;;;19.50;99.90;;;;;;5013534;28;20465;-75
2022/10/21 11:57:08;;;;;;;4.53;0.65;;;19.60;99.90;;;;;;4996038;28;20022;-75
2022/10/21 11:59:56;;;;;;;1.65;0.47;;;19.60;99.90;;;;;;4995959;28;20033;-75
2022/10/21 12:02:39;;;;;;;9.90;0.40;;;19.50;99.90;;;;;;5013897;28;20022;-75
2022/10/21 12:05:17;;;;;;;4.70;0.65;;;19.40;99.90;;;;;;4996157;28;20032;-75
2022/10/21 12:07:48;;;;;;;2.15;0.10;;;19.30;99.90;;;;;;5014311;28;20022;-75
2022/10/21 12:10:38;;;;;;;0.75;0.00;;;19.10;99.90;;;;;;5017562;28;20030;-75
2022/10/21 12:13:17;;;;;;;3.03;0.30;;;19.10;99.90;;;;;;4999891;28;20025;-75
2022/10/21 12:15:47;;;;;;;2.13;0.47;;;18.90;99.90;;;;;;5017923;28;20026;-75
2022/10/21 12:18:17;;;;;;;1.88;0.20;;;18.90;99.90;;;;;;5017406;28;20022;-76
2022/10/21 12:20:47;;;;;;;3.03;0.40;;;19.00;99.90;;;;;;5017479;28;20099;-76
2022/10/21 12:23:18;;;;;;;2.22;0.20;;;19.10;99.90;;;;;;4999706;28;20029;-76
2022/10/21 12:26:05;;;;;;;1.98;0.32;;;19.20;99.90;;;;;;5017421;28;20038;-77
2022/10/21 12:28:50;;;;;;;2.10;0.20;;;19.20;99.90;;;;;;4999678;28;20038;-76
2022/10/21 12:31:31;;;;;;;3.63;0.43;;;19.30;99.90;;;;;;4999764;28;20072;-76
2022/10/21 12:33:57;;;;;;;1.42;0.20;;;19.20;99.90;;;;;;4999554;28;20026;-75
2022/10/21 12:36:37;;;;;;;2.92;0.40;;;19.10;99.90;;;;;;5017575;28;20022;-75
2022/10/21 12:39:03;;;;;;;2.83;0.00;;;19.10;99.90;;;;;;4999496;28;20499;-75
2022/10/21 12:41:33;;;;;;;3.70;0.40;;;18.90;99.90;;;;;;5016844;28;20014;-75
2022/10/21 12:44:04;;;;;;;1.10;0.30;;;18.80;99.90;;;;;;5016860;28;20037;-75
2022/10/21 12:46:59;;;;;;;1.25;0.20;;;18.70;99.90;;;;;;5016731;28;20564;-75
2022/10/21 12:49:31;;;;;;;3.45;0.30;;;18.60;99.90;;;;;;5016768;28;20030;-75
2022/10/21 12:52:13;;;;;;;2.80;0.20;;;18.60;99.90;;;;;;5016851;28;20022;-75
2022/10/21 12:55:01;;;;;;;3.20;0.38;;;18.70;99.90;;;;;;5017282;28;20391;-75
2022/10/21 12:57:37;;;;;;;5.13;0.57;;;18.70;99.90;;;;;;5016718;28;20034;-75
2022/10/21 13:00:21;;;;;;;3.65;0.30;;;18.80;99.90;;;;;;5016763;28;20053;-75
2022/10/21 13:03:08;;;;;;;2.92;0.30;;;18.80;99.90;;;;;;5017111;28;20033;-75